• Join FlightAware (Why Join?)
  • Login
  • US Flag 
07:27AM EDT


 

Airport Tracker/Info


-or-


 

Live Flight TrackerFlight Track Log ✈ FLG4116 ✈ 03-May-2013 ✈ KMSP - KMSN

Flight Track Log - Related Links

Times and Time Zones

All times are in EDT time to prevent confusion due to time zone crossing. See the FLG4116 flight status page for this flight to view local times or setup timezone preferences in your user account.

Time Position Orientation Groundspeed Altitude Reporting Facility
EDT Latitude Longitude Course Direction KTS MPH feet Rate Location/Type
08:26AM 44.9333 -93.2500 117° Southeast 197 227 3,800  Level Minneapolis TRACON
08:27AM 44.9833 -93.2333 13° North 240 276 5,900 2,280 Climbing Minneapolis TRACON
08:28AM 44.7358 -92.8749 110° East  Level Estimated
08:28AM 44.9850 -93.2064 85° East 248 285 6,600  Level Minneapolis Center
08:29AM 44.7213 -92.7421 99° East  Level FlightAware Approximate
08:29AM 44.9481 -93.1153 120° Southeast 266 306 9,500  Level Minneapolis Center
08:30AM 44.6712 -92.6279 118° Southeast  Level Estimated
08:30AM 44.9092 -93.0211 120° Southeast 274 315 11,500  Level Minneapolis Center
08:31AM 44.6210 -92.5138 115° Southeast  Level Estimated
08:31AM 44.8633 -92.9183 122° Southeast 305 351 13,000  Level Minneapolis Center
08:32AM 44.5754 -92.4106 117° Southeast  Level Estimated
08:32AM 44.8139 -92.8097 123° Southeast 326 375 14,800  Level Minneapolis Center
08:33AM 44.7644 -92.7006 123° Southeast 329 379 16,700 1,620 Climbing Minneapolis Center
08:34AM 44.7172 -92.5978 123° Southeast 316 364 18,200 1,440 Climbing Minneapolis Center
08:35AM 44.6703 -92.4969 123° Southeast 309 356 19,700 1,320 Climbing Minneapolis Center
08:36AM 44.6233 -92.3936 123° Southeast 314 361 21,000 600 Climbing Minneapolis Center
08:37AM 44.5719 -92.2836 123° Southeast 332 382 21,000  Level Minneapolis Center
08:38AM 44.5036 -92.1378 123° Southeast 369 425 21,000  Level Minneapolis Center
08:39AM 44.4461 -92.0133 123° Southeast 380 437 21,000  Level Minneapolis Center
08:40AM 44.3861 -91.8864 123° Southeast 390 449 21,000  Level Minneapolis Center
08:41AM 44.3272 -91.7594 123° Southeast 392 451 21,000  Level Minneapolis Center
08:42AM 44.2675 -91.6331 123° Southeast 392 451 21,000  Level Minneapolis Center
08:43AM 44.2078 -91.5056 123° Southeast 393 452 21,000  Level Minneapolis Center
08:44AM 44.1478 -91.3781 123° Southeast 395 455 21,000  Level Minneapolis Center
08:45AM 44.0808 -91.2394 124° Southeast 396 456 21,000  Level Minneapolis Center
08:46AM 44.0217 -91.1133 123° Southeast 394 453 21,000  Level Minneapolis Center
08:47AM 43.9594 -90.9856 124° Southeast 397 457 21,000  Level Minneapolis Center
08:48AM 43.8978 -90.8575 124° Southeast 400 460 21,000  Level Minneapolis Center
08:49AM 43.8361 -90.7292 124° Southeast 401 461 21,000  Level Minneapolis Center
08:50AM 43.7742 -90.6014 124° Southeast 403 464 21,000  Level Minneapolis Center
08:51AM 43.7117 -90.4733 124° Southeast 403 464 21,000 -360 Level Minneapolis Center
08:52AM 43.6347 -90.3178 124° Southeast 408 470 20,300 -1,200 Descending Minneapolis Center
08:53AM 43.5722 -90.1917 124° Southeast 402 463 18,600 -1,800 Descending Minneapolis Center
08:54AM 43.5089 -90.0700 126° Southeast 370 426 16,700 -1,860 Descending Minneapolis Center
08:55AM 43.4478 -89.9769 132° Southeast 345 397 14,900 -1,860 Descending Minneapolis Center
08:56AM 43.3894 -89.8839 131° Southeast 308 354 13,000 -1,920 Descending Minneapolis Center
08:57AM 43.3517 -89.8286 133° Southeast 308 354 11,600 -1,860 Descending Chicago Center
08:58AM 43.3047 -89.7492 129° Southeast 284 327 9,800 -1,860 Descending Chicago Center
08:59AM 43.2606 -89.6728 128° Southeast 266 306 7,900 -1,980 Descending Chicago Center
09:00AM 43.1961 -89.6172 148° Southeast 244 281 5,800 -1,500 Descending Chicago Center
09:01AM 43.1403 -89.5767 152° Southeast 232 267 4,900 -540 Descending Chicago Center
09:02AM 43.0883 -89.5403 153° Southeast 219 252 4,800 -480 Descending Chicago Center
09:03AM 43.0369 -89.5058 154° Southeast 212 244 4,000 -420 Descending Chicago Center
09:04AM 42.9853 -89.4733 155° Southeast 209 241 4,000 -180 Level Chicago Center
09:05AM 42.9472 -89.4261 138° Southeast 206 237 3,700 -540 Descending Chicago Center
09:06AM 42.9583 -89.3622 77° East 184 212 3,000 -360 Descending Chicago Center
09:07AM 43.0150 -89.3489 10° North 174 200 3,000  Level Chicago Center